sensor_id;sensor_type;location;lat;lon;timestamp;pressure;altitude;pressure_sealevel;temperature;humidity
24858;BME280;12935;50.782;6.074;2022-11-18T00:00:49;97507.78;;;10.54;100.00
24858;BME280;12935;50.782;6.074;2022-11-18T00:03:15;97492.06;;;10.46;100.00
24858;BME280;12935;50.782;6.074;2022-11-18T00:05:41;97495.78;;;10.39;100.00
24858;BME280;12935;50.782;6.074;2022-11-18T00:08:06;97502.75;;;10.40;100.00
24858;BME280;12935;50.782;6.074;2022-11-18T00:10:31;97490.03;;;10.37;100.00
24858;BME280;12935;50.782;6.074;2022-11-18T00:12:57;97504.84;;;10.49;100.00
24858;BME280;12935;50.782;6.074;2022-11-18T00:15:41;97500.56;;;10.48;100.00
24858;BME280;12935;50.782;6.074;2022-11-18T00:18:06;97509.75;;;10.41;100.00
24858;BME280;12935;50.782;6.074;2022-11-18T00:20:33;97496.69;;;10.11;100.00
24858;BME280;12935;50.782;6.074;2022-11-18T00:22:58;97498.78;;;10.19;100.00
24858;BME280;12935;50.782;6.074;2022-11-18T00:25:24;97501.16;;;10.30;100.00
24858;BME280;12935;50.782;6.074;2022-11-18T00:27:49;97494.06;;;10.33;100.00
24858;BME280;12935;50.782;6.074;2022-11-18T00:30:15;97501.91;;;10.31;100.00
24858;BME280;12935;50.782;6.074;2022-11-18T00:32:40;97500.78;;;10.41;100.00
24858;BME280;12935;50.782;6.074;2022-11-18T00:35:06;97495.25;;;10.32;100.00
24858;BME280;12935;50.782;6.074;2022-11-18T00:37:32;97500.78;;;10.41;100.00
24858;BME280;12935;50.782;6.074;2022-11-18T00:39:57;97500.94;;;10.37;100.00
24858;BME280;12935;50.782;6.074;2022-11-18T00:42:23;97519.94;;;10.28;100.00
24858;BME280;12935;50.782;6.074;2022-11-18T00:45:07;97508.78;;;10.35;100.00
24858;BME280;12935;50.782;6.074;2022-11-18T00:47:32;97514.88;;;10.39;100.00
24858;BME280;12935;50.782;6.074;2022-11-18T00:49:58;97523.84;;;10.40;100.00
24858;BME280;12935;50.782;6.074;2022-11-18T00:52:23;97523.19;;;10.48;100.00
24858;BME280;12935;50.782;6.074;2022-11-18T00:54:48;97522.78;;;10.25;100.00
24858;BME280;12935;50.782;6.074;2022-11-18T00:57:13;97524.97;;;10.30;100.00
24858;BME280;12935;50.782;6.074;2022-11-18T00:59:39;97518.97;;;10.22;100.00
24858;BME280;12935;50.782;6.074;2022-11-18T01:02:04;97529.44;;;10.24;100.00
24858;BME280;12935;50.782;6.074;2022-11-18T01:04:29;97534.03;;;10.27;100.00
24858;BME280;12935;50.782;6.074;2022-11-18T01:06:55;97528.03;;;10.19;100.00
24858;BME280;12935;50.782;6.074;2022-11-18T01:09:20;97528.38;;;10.21;100.00
24858;BME280;12935;50.782;6.074;2022-11-18T01:11:45;97527.59;;;10.21;100.00
24858;BME280;12935;50.782;6.074;2022-11-18T01:14:29;97546.91;;;10.26;100.00
24858;BME280;12935;50.782;6.074;2022-11-18T01:16:55;97542.53;;;10.16;100.00
24858;BME280;12935;50.782;6.074;2022-11-18T01:19:21;97559.22;;;10.18;100.00
24858;BME280;12935;50.782;6.074;2022-11-18T01:21:47;97541.00;;;10.15;100.00
24858;BME280;12935;50.782;6.074;2022-11-18T01:24:13;97552.13;;;10.08;100.00
24858;BME280;12935;50.782;6.074;2022-11-18T01:26:38;97545.47;;;9.96;100.00
24858;BME280;12935;50.782;6.074;2022-11-18T01:29:03;97541.22;;;9.70;100.00
24858;BME280;12935;50.782;6.074;2022-11-18T01:31:29;97557.81;;;9.88;100.00
24858;BME280;12935;50.782;6.074;2022-11-18T01:33:55;97556.50;;;9.93;100.00
24858;BME280;12935;50.782;6.074;2022-11-18T01:36:25;97563.72;;;9.99;100.00
24858;BME280;12935;50.782;6.074;2022-11-18T01:38:52;97569.81;;;9.91;100.00
24858;BME280;12935;50.782;6.074;2022-11-18T01:41:20;97566.00;;;9.88;100.00
24858;BME280;12935;50.782;6.074;2022-11-18T01:43:55;97579.41;;;9.82;100.00
24858;BME280;12935;50.782;6.074;2022-11-18T01:46:22;97584.31;;;9.75;100.00
24858;BME280;12935;50.782;6.074;2022-11-18T01:48:56;97587.66;;;9.54;100.00
24858;BME280;12935;50.782;6.074;2022-11-18T01:51:26;97583.94;;;9.60;100.00
24858;BME280;12935;50.782;6.074;2022-11-18T01:53:59;97583.22;;;9.72;100.00
24858;BME280;12935;50.782;6.074;2022-11-18T01:56:30;97560.28;;;9.57;100.00
24858;BME280;12935;50.782;6.074;2022-11-18T01:59:04;97592.03;;;9.76;100.00
24858;BME280;12935;50.782;6.074;2022-11-18T02:01:31;97580.25;;;9.67;100.00
24858;BME280;12935;50.782;6.074;2022-11-18T02:03:56;97588.78;;;9.69;100.00
24858;BME280;12935;50.782;6.074;2022-11-18T02:06:22;97579.72;;;9.72;100.00
24858;BME280;12935;50.782;6.074;2022-11-18T02:08:48;97589.00;;;9.74;100.00
24858;BME280;12935;50.782;6.074;2022-11-18T02:11:16;97584.00;;;9.73;100.00
24858;BME280;12935;50.782;6.074;2022-11-18T02:14:03;97591.84;;;9.71;100.00
24858;BME280;12935;50.782;6.074;2022-11-18T02:16:42;97598.25;;;9.77;100.00
24858;BME280;12935;50.782;6.074;2022-11-18T02:19:31;97606.78;;;9.79;100.00
24858;BME280;12935;50.782;6.074;2022-11-18T02:24:55;97617.22;;;9.55;100.00
24858;BME280;12935;50.782;6.074;2022-11-18T02:30:12;97631.59;;;9.56;100.00
24858;BME280;12935;50.782;6.074;2022-11-18T02:32:55;97629.41;;;9.50;100.00
24858;BME280;12935;50.782;6.074;2022-11-18T02:35:28;97630.41;;;9.57;100.00
24858;BME280;12935;50.782;6.074;2022-11-18T02:38:04;97645.47;;;9.61;100.00
24858;BME280;12935;50.782;6.074;2022-11-18T02:40:34;97634.88;;;9.63;100.00
24858;BME280;12935;50.782;6.074;2022-11-18T02:43:04;97636.34;;;9.39;100.00
24858;BME280;12935;50.782;6.074;2022-11-18T02:45:31;97641.03;;;9.38;100.00
24858;BME280;12935;50.782;6.074;2022-11-18T02:48:01;97646.16;;;9.36;100.00
24858;BME280;12935;50.782;6.074;2022-11-18T02:50:31;97651.31;;;9.47;100.00
24858;BME280;12935;50.782;6.074;2022-11-18T02:53:00;97650.03;;;9.52;100.00
24858;BME280;12935;50.782;6.074;2022-11-18T02:55:29;97647.97;;;9.56;100.00
24858;BME280;12935;50.782;6.074;2022-11-18T02:57:58;97656.59;;;9.67;100.00
24858;BME280;12935;50.782;6.074;2022-11-18T03:00:24;97657.72;;;9.69;100.00
24858;BME280;12935;50.782;6.074;2022-11-18T03:02:50;97656.44;;;9.74;100.00
24858;BME280;12935;50.782;6.074;2022-11-18T03:05:20;97648.66;;;9.72;100.00
24858;BME280;12935;50.782;6.074;2022-11-18T03:07:55;97655.38;;;9.55;100.00
24858;BME280;12935;50.782;6.074;2022-11-18T03:10:23;97670.25;;;9.67;100.00
24858;BME280;12935;50.782;6.074;2022-11-18T03:13:03;97658.38;;;9.44;100.00
24858;BME280;12935;50.782;6.074;2022-11-18T03:15:50;97660.47;;;9.40;100.00
24858;BME280;12935;50.782;6.074;2022-11-18T03:18:44;97675.75;;;9.50;100.00
24858;BME280;12935;50.782;6.074;2022-11-18T03:21:19;97674.09;;;9.40;100.00
24858;BME280;12935;50.782;6.074;2022-11-18T03:23:56;97678.75;;;9.40;100.00
24858;BME280;12935;50.782;6.074;2022-11-18T03:26:32;97687.75;;;9.53;100.00
24858;BME280;12935;50.782;6.074;2022-11-18T03:29:00;97687.13;;;9.62;100.00
24858;BME280;12935;50.782;6.074;2022-11-18T03:31:39;97695.41;;;9.58;100.00
24858;BME280;12935;50.782;6.074;2022-11-18T03:34:27;97691.28;;;9.37;100.00
24858;BME280;12935;50.782;6.074;2022-11-18T03:36:56;97699.69;;;9.59;100.00
24858;BME280;12935;50.782;6.074;2022-11-18T03:39:25;97705.06;;;9.46;100.00
24858;BME280;12935;50.782;6.074;2022-11-18T03:42:04;97705.31;;;9.52;100.00
24858;BME280;12935;50.782;6.074;2022-11-18T03:44:35;97701.56;;;9.46;100.00
24858;BME280;12935;50.782;6.074;2022-11-18T03:47:11;97699.38;;;9.41;100.00
24858;BME280;12935;50.782;6.074;2022-11-18T03:49:44;97698.91;;;9.59;100.00
24858;BME280;12935;50.782;6.074;2022-11-18T03:52:14;97702.84;;;9.58;100.00
24858;BME280;12935;50.782;6.074;2022-11-18T03:54:44;97709.38;;;9.60;100.00
24858;BME280;12935;50.782;6.074;2022-11-18T03:57:20;97708.22;;;9.45;100.00
24858;BME280;12935;50.782;6.074;2022-11-18T03:59:55;97707.53;;;9.57;100.00
24858;BME280;12935;50.782;6.074;2022-11-18T04:02:25;97712.72;;;9.52;100.00
24858;BME280;12935;50.782;6.074;2022-11-18T04:04:54;97716.22;;;9.52;100.00
24858;BME280;12935;50.782;6.074;2022-11-18T04:10:09;97716.31;;;9.32;100.00
24858;BME280;12935;50.782;6.074;2022-11-18T04:12:43;97725.56;;;9.22;100.00
24858;BME280;12935;50.782;6.074;2022-11-18T04:15:10;97726.28;;;9.39;100.00
24858;BME280;12935;50.782;6.074;2022-11-18T04:17:36;97730.22;;;9.38;100.00
24858;BME280;12935;50.782;6.074;2022-11-18T04:20:01;97734.91;;;9.37;100.00
24858;BME280;12935;50.782;6.074;2022-11-18T04:22:26;97732.34;;;9.30;100.00
24858;BME280;12935;50.782;6.074;2022-11-18T04:24:52;97739.63;;;9.49;100.00
24858;BME280;12935;50.782;6.074;2022-11-18T04:27:17;97735.16;;;9.43;100.00
24858;BME280;12935;50.782;6.074;2022-11-18T04:29:42;97739.59;;;9.37;100.00
24858;BME280;12935;50.782;6.074;2022-11-18T04:32:08;97741.63;;;9.33;100.00
24858;BME280;12935;50.782;6.074;2022-11-18T04:34:33;97743.22;;;9.46;100.00
24858;BME280;12935;50.782;6.074;2022-11-18T04:36:58;97743.94;;;9.34;100.00
24858;BME280;12935;50.782;6.074;2022-11-18T04:39:24;97754.41;;;9.36;100.00
24858;BME280;12935;50.782;6.074;2022-11-18T04:41:49;97746.97;;;9.53;100.00
24858;BME280;12935;50.782;6.074;2022-11-18T04:44:25;97752.00;;;9.38;100.00
24858;BME280;12935;50.782;6.074;2022-11-18T04:46:51;97756.63;;;9.25;100.00
24858;BME280;12935;50.782;6.074;2022-11-18T04:49:17;97765.47;;;9.29;100.00
24858;BME280;12935;50.782;6.074;2022-11-18T04:51:43;97767.09;;;9.42;100.00
24858;BME280;12935;50.782;6.074;2022-11-18T04:54:09;97778.66;;;9.46;100.00
24858;BME280;12935;50.782;6.074;2022-11-18T04:56:35;97784.63;;;9.58;100.00
24858;BME280;12935;50.782;6.074;2022-11-18T04:59:02;97783.31;;;9.62;100.00
24858;BME280;12935;50.782;6.074;2022-11-18T05:01:28;97778.16;;;9.35;100.00
24858;BME280;12935;50.782;6.074;2022-11-18T05:03:54;97779.63;;;9.40;100.00
24858;BME280;12935;50.782;6.074;2022-11-18T05:06:20;97781.81;;;9.45;100.00
24858;BME280;12935;50.782;6.074;2022-11-18T05:08:45;97794.66;;;9.61;100.00
24858;BME280;12935;50.782;6.074;2022-11-18T05:11:10;97789.13;;;9.64;100.00
24858;BME280;12935;50.782;6.074;2022-11-18T05:13:54;97792.00;;;9.73;100.00
24858;BME280;12935;50.782;6.074;2022-11-18T05:16:20;97791.25;;;9.73;100.00
24858;BME280;12935;50.782;6.074;2022-11-18T05:18:45;97800.75;;;9.81;100.00
24858;BME280;12935;50.782;6.074;2022-11-18T05:21:10;97794.41;;;9.71;100.00
24858;BME280;12935;50.782;6.074;2022-11-18T05:23:36;97815.38;;;9.58;100.00
24858;BME280;12935;50.782;6.074;2022-11-18T05:26:03;97814.50;;;9.61;100.00
24858;BME280;12935;50.782;6.074;2022-11-18T05:28:28;97818.75;;;9.62;100.00
24858;BME280;12935;50.782;6.074;2022-11-18T05:30:53;97818.69;;;9.49;100.00
24858;BME280;12935;50.782;6.074;2022-11-18T05:33:18;97819.19;;;9.44;100.00
24858;BME280;12935;50.782;6.074;2022-11-18T05:35:44;97816.75;;;9.50;100.00
24858;BME280;12935;50.782;6.074;2022-11-18T05:38:09;97824.22;;;9.46;100.00
24858;BME280;12935;50.782;6.074;2022-11-18T05:40:34;97826.94;;;9.46;100.00
24858;BME280;12935;50.782;6.074;2022-11-18T05:42:59;97829.53;;;9.37;100.00
24858;BME280;12935;50.782;6.074;2022-11-18T05:45:37;97843.16;;;9.53;100.00
24858;BME280;12935;50.782;6.074;2022-11-18T05:48:03;97829.59;;;9.49;100.00
24858;BME280;12935;50.782;6.074;2022-11-18T05:50:30;97842.38;;;9.20;100.00
24858;BME280;12935;50.782;6.074;2022-11-18T05:52:56;97841.44;;;9.10;100.00
24858;BME280;12935;50.782;6.074;2022-11-18T05:55:24;97851.28;;;9.04;100.00
24858;BME280;12935;50.782;6.074;2022-11-18T05:57:51;97849.97;;;9.12;100.00
24858;BME280;12935;50.782;6.074;2022-11-18T06:00:17;97855.91;;;9.07;100.00
24858;BME280;12935;50.782;6.074;2022-11-18T06:02:44;97854.88;;;9.18;100.00
24858;BME280;12935;50.782;6.074;2022-11-18T06:05:10;97860.53;;;9.27;100.00
24858;BME280;12935;50.782;6.074;2022-11-18T06:07:45;97867.16;;;9.26;100.00
24858;BME280;12935;50.782;6.074;2022-11-18T06:10:15;97853.69;;;8.83;100.00
24858;BME280;12935;50.782;6.074;2022-11-18T06:12:44;97867.56;;;8.72;100.00
24858;BME280;12935;50.782;6.074;2022-11-18T06:15:16;97876.84;;;8.74;100.00
24858;BME280;12935;50.782;6.074;2022-11-18T06:17:57;97879.25;;;8.89;100.00
24858;BME280;12935;50.782;6.074;2022-11-18T06:20:24;97875.81;;;9.04;100.00
24858;BME280;12935;50.782;6.074;2022-11-18T06:22:52;97877.94;;;8.97;100.00
24858;BME280;12935;50.782;6.074;2022-11-18T06:25:19;97881.75;;;8.99;100.00
24858;BME280;12935;50.782;6.074;2022-11-18T06:27:45;97880.97;;;8.99;100.00
24858;BME280;12935;50.782;6.074;2022-11-18T06:30:12;97895.78;;;8.98;100.00
24858;BME280;12935;50.782;6.074;2022-11-18T06:32:37;97891.81;;;9.02;100.00
24858;BME280;12935;50.782;6.074;2022-11-18T06:35:03;97900.97;;;9.12;100.00
24858;BME280;12935;50.782;6.074;2022-11-18T06:37:28;97907.00;;;9.20;100.00
24858;BME280;12935;50.782;6.074;2022-11-18T06:39:53;97900.84;;;9.15;100.00
24858;BME280;12935;50.782;6.074;2022-11-18T06:42:18;97896.25;;;8.96;100.00
24858;BME280;12935;50.782;6.074;2022-11-18T06:45:03;97913.47;;;8.90;100.00
24858;BME280;12935;50.782;6.074;2022-11-18T06:47:29;97915.38;;;8.93;100.00
24858;BME280;12935;50.782;6.074;2022-11-18T06:49:54;97917.09;;;9.03;100.00
24858;BME280;12935;50.782;6.074;2022-11-18T06:52:21;97919.88;;;8.99;100.00
24858;BME280;12935;50.782;6.074;2022-11-18T06:54:46;97916.41;;;8.99;100.00
24858;BME280;12935;50.782;6.074;2022-11-18T06:57:12;97920.53;;;9.07;100.00
24858;BME280;12935;50.782;6.074;2022-11-18T06:59:37;97931.91;;;9.02;100.00
24858;BME280;12935;50.782;6.074;2022-11-18T07:02:02;97935.41;;;9.02;100.00
24858;BME280;12935;50.782;6.074;2022-11-18T07:04:28;97933.91;;;8.98;100.00
24858;BME280;12935;50.782;6.074;2022-11-18T07:06:53;97940.25;;;8.95;100.00
24858;BME280;12935;50.782;6.074;2022-11-18T07:09:18;97940.25;;;8.75;100.00
24858;BME280;12935;50.782;6.074;2022-11-18T07:11:43;97938.75;;;8.90;100.00
24858;BME280;12935;50.782;6.074;2022-11-18T07:14:09;97953.16;;;8.91;100.00
24858;BME280;12935;50.782;6.074;2022-11-18T07:16:36;97952.13;;;8.65;100.00
24858;BME280;12935;50.782;6.074;2022-11-18T07:19:07;97957.34;;;8.75;100.00
24858;BME280;12935;50.782;6.074;2022-11-18T07:21:33;97964.16;;;8.84;100.00
24858;BME280;12935;50.782;6.074;2022-11-18T07:23:58;97954.91;;;8.81;100.00
24858;BME280;12935;50.782;6.074;2022-11-18T07:26:24;97969.44;;;8.94;100.00
24858;BME280;12935;50.782;6.074;2022-11-18T07:28:49;97970.56;;;8.97;100.00
24858;BME280;12935;50.782;6.074;2022-11-18T07:31:17;97981.44;;;8.97;100.00
24858;BME280;12935;50.782;6.074;2022-11-18T07:33:44;97977.84;;;9.00;100.00
24858;BME280;12935;50.782;6.074;2022-11-18T07:36:12;97976.00;;;8.97;100.00
24858;BME280;12935;50.782;6.074;2022-11-18T07:38:37;97985.06;;;8.90;100.00
24858;BME280;12935;50.782;6.074;2022-11-18T07:41:07;97985.06;;;8.90;100.00
24858;BME280;12935;50.782;6.074;2022-11-18T07:43:34;97992.59;;;8.83;100.00
24858;BME280;12935;50.782;6.074;2022-11-18T07:46:18;97989.81;;;8.86;100.00
24858;BME280;12935;50.782;6.074;2022-11-18T07:48:46;97978.13;;;8.66;100.00
24858;BME280;12935;50.782;6.074;2022-11-18T07:51:13;97992.50;;;8.66;100.00
24858;BME280;12935;50.782;6.074;2022-11-18T07:53:39;97990.56;;;8.67;100.00
24858;BME280;12935;50.782;6.074;2022-11-18T07:56:05;97992.25;;;8.81;100.00
24858;BME280;12935;50.782;6.074;2022-11-18T07:58:31;97993.34;;;8.83;100.00
24858;BME280;12935;50.782;6.074;2022-11-18T08:00:57;98004.53;;;8.89;100.00
24858;BME280;12935;50.782;6.074;2022-11-18T08:03:26;98000.16;;;8.95;100.00
24858;BME280;12935;50.782;6.074;2022-11-18T08:05:52;97993.88;;;8.78;100.00
24858;BME280;12935;50.782;6.074;2022-11-18T08:08:18;98008.41;;;8.91;100.00
24858;BME280;12935;50.782;6.074;2022-11-18T08:10:43;98008.94;;;9.02;100.00
24858;BME280;12935;50.782;6.074;2022-11-18T08:13:08;98012.00;;;8.85;100.00
24858;BME280;12935;50.782;6.074;2022-11-18T08:15:33;98018.53;;;8.91;100.00
24858;BME280;12935;50.782;6.074;2022-11-18T08:17:59;98024.59;;;8.98;100.00
24858;BME280;12935;50.782;6.074;2022-11-18T08:20:24;98018.31;;;9.01;100.00
24858;BME280;12935;50.782;6.074;2022-11-18T08:22:51;98028.66;;;9.10;100.00
24858;BME280;12935;50.782;6.074;2022-11-18T08:25:17;98033.81;;;9.04;100.00
24858;BME280;12935;50.782;6.074;2022-11-18T08:27:42;98030.97;;;9.11;100.00
24858;BME280;12935;50.782;6.074;2022-11-18T08:30:08;98039.34;;;9.21;100.00
24858;BME280;12935;50.782;6.074;2022-11-18T08:32:33;98042.59;;;9.32;100.00
24858;BME280;12935;50.782;6.074;2022-11-18T08:34:59;98037.72;;;9.23;100.00
24858;BME280;12935;50.782;6.074;2022-11-18T08:37:24;98048.16;;;9.08;100.00
24858;BME280;12935;50.782;6.074;2022-11-18T08:39:49;98049.47;;;9.20;100.00
24858;BME280;12935;50.782;6.074;2022-11-18T08:42:15;98037.50;;;9.34;100.00
24858;BME280;12935;50.782;6.074;2022-11-18T08:44:40;98047.34;;;9.47;100.00
24858;BME280;12935;50.782;6.074;2022-11-18T08:47:05;98049.25;;;9.50;100.00
24858;BME280;12935;50.782;6.074;2022-11-18T08:49:31;98033.47;;;9.42;100.00
24858;BME280;12935;50.782;6.074;2022-11-18T08:51:56;98055.31;;;9.58;100.00
24858;BME280;12935;50.782;6.074;2022-11-18T08:54:21;98050.34;;;9.53;100.00
24858;BME280;12935;50.782;6.074;2022-11-18T08:56:47;98053.28;;;9.62;100.00
24858;BME280;12935;50.782;6.074;2022-11-18T08:59:14;98059.00;;;9.68;100.00
24858;BME280;12935;50.782;6.074;2022-11-18T09:01:40;98047.31;;;9.67;100.00
24858;BME280;12935;50.782;6.074;2022-11-18T09:04:07;98062.16;;;9.66;100.00
24858;BME280;12935;50.782;6.074;2022-11-18T09:06:33;98066.66;;;9.57;100.00
24858;BME280;12935;50.782;6.074;2022-11-18T09:08:59;98067.19;;;9.68;100.00
24858;BME280;12935;50.782;6.074;2022-11-18T09:11:25;98064.91;;;9.82;100.00
24858;BME280;12935;50.782;6.074;2022-11-18T09:13:53;98079.69;;;9.85;100.00
24858;BME280;12935;50.782;6.074;2022-11-18T09:16:19;98077.69;;;9.49;100.00
24858;BME280;12935;50.782;6.074;2022-11-18T09:18:44;98069.97;;;9.28;100.00
24858;BME280;12935;50.782;6.074;2022-11-18T09:21:09;98075.91;;;9.43;100.00
24858;BME280;12935;50.782;6.074;2022-11-18T09:23:36;98085.97;;;9.26;100.00
24858;BME280;12935;50.782;6.074;2022-11-18T09:26:12;98087.00;;;9.32;100.00
24858;BME280;12935;50.782;6.074;2022-11-18T09:28:38;98093.56;;;9.35;100.00
24858;BME280;12935;50.782;6.074;2022-11-18T09:31:05;98099.28;;;9.21;100.00
24858;BME280;12935;50.782;6.074;2022-11-18T09:33:32;98094.47;;;9.48;100.00
24858;BME280;12935;50.782;6.074;2022-11-18T09:35:57;98093.34;;;9.65;100.00
24858;BME280;12935;50.782;6.074;2022-11-18T09:38:22;98102.22;;;9.69;100.00
24858;BME280;12935;50.782;6.074;2022-11-18T09:41:04;98101.69;;;9.94;100.00
24858;BME280;12935;50.782;6.074;2022-11-18T09:49:39;98113.63;;;10.00;100.00
24858;BME280;12935;50.782;6.074;2022-11-18T09:52:29;98114.59;;;10.10;100.00
24858;BME280;12935;50.782;6.074;2022-11-18T09:54:57;98121.72;;;10.24;100.00
24858;BME280;12935;50.782;6.074;2022-11-18T09:57:33;98122.09;;;10.06;100.00
24858;BME280;12935;50.782;6.074;2022-11-18T10:00:00;98121.91;;;9.97;100.00
24858;BME280;12935;50.782;6.074;2022-11-18T10:05:22;98126.09;;;10.70;100.00
24858;BME280;12935;50.782;6.074;2022-11-18T10:10:29;98134.81;;;10.81;100.00
24858;BME280;12935;50.782;6.074;2022-11-18T10:13:05;98136.78;;;10.64;100.00
24858;BME280;12935;50.782;6.074;2022-11-18T10:15:52;98121.84;;;10.69;100.00
24858;BME280;12935;50.782;6.074;2022-11-18T10:18:36;98136.75;;;10.80;100.00
24858;BME280;12935;50.782;6.074;2022-11-18T10:21:17;98151.09;;;11.01;100.00
24858;BME280;12935;50.782;6.074;2022-11-18T10:23:58;98152.09;;;11.07;100.00
24858;BME280;12935;50.782;6.074;2022-11-18T10:26:37;98143.53;;;11.21;100.00
24858;BME280;12935;50.782;6.074;2022-11-18T10:29:04;98140.38;;;11.22;100.00
24858;BME280;12935;50.782;6.074;2022-11-18T10:31:36;98143.94;;;10.74;100.00
24858;BME280;12935;50.782;6.074;2022-11-18T10:34:02;98147.75;;;10.93;100.00
24858;BME280;12935;50.782;6.074;2022-11-18T10:36:30;98153.41;;;10.86;100.00
24858;BME280;12935;50.782;6.074;2022-11-18T10:39:13;98158.13;;;10.85;100.00
24858;BME280;12935;50.782;6.074;2022-11-18T10:41:47;98153.41;;;10.86;100.00
24858;BME280;12935;50.782;6.074;2022-11-18T10:44:36;98151.78;;;10.88;100.00
24858;BME280;12935;50.782;6.074;2022-11-18T10:49:49;98145.03;;;10.93;100.00
24858;BME280;12935;50.782;6.074;2022-11-18T10:52:15;98166.84;;;11.25;100.00
24858;BME280;12935;50.782;6.074;2022-11-18T10:54:41;98155.78;;;11.16;100.00
24858;BME280;12935;50.782;6.074;2022-11-18T10:59:39;98154.81;;;11.52;100.00
24858;BME280;12935;50.782;6.074;2022-11-18T11:04:40;98153.56;;;12.49;100.00
24858;BME280;12935;50.782;6.074;2022-11-18T11:07:35;98159.59;;;12.44;100.00
24858;BME280;12935;50.782;6.074;2022-11-18T11:12:48;98165.53;;;12.42;100.00
24858;BME280;12935;50.782;6.074;2022-11-18T11:15:41;98160.13;;;12.01;100.00
24858;BME280;12935;50.782;6.074;2022-11-18T11:18:20;98167.63;;;11.55;100.00
24858;BME280;12935;50.782;6.074;2022-11-18T11:21:14;98171.41;;;11.74;100.00
24858;BME280;12935;50.782;6.074;2022-11-18T11:23:41;98164.47;;;11.98;100.00
24858;BME280;12935;50.782;6.074;2022-11-18T11:26:21;98168.00;;;11.70;100.00
24858;BME280;12935;50.782;6.074;2022-11-18T11:34:39;98174.72;;;11.52;100.00
24858;BME280;12935;50.782;6.074;2022-11-18T11:37:31;98175.44;;;11.98;100.00
24858;BME280;12935;50.782;6.074;2022-11-18T11:43:00;98179.53;;;12.44;100.00
24858;BME280;12935;50.782;6.074;2022-11-18T11:45:45;98179.56;;;12.57;100.00
24858;BME280;12935;50.782;6.074;2022-11-18T11:51:24;98180.13;;;11.85;100.00
24858;BME280;12935;50.782;6.074;2022-11-18T12:07:42;98183.44;;;11.64;100.00
24858;BME280;12935;50.782;6.074;2022-11-18T12:16:38;98184.81;;;11.10;100.00
24858;BME280;12935;50.782;6.074;2022-11-18T12:19:11;98181.94;;;11.01;100.00
24858;BME280;12935;50.782;6.074;2022-11-18T12:24:37;98186.78;;;11.10;100.00
24858;BME280;12935;50.782;6.074;2022-11-18T12:27:55;98190.59;;;11.29;100.00
24858;BME280;12935;50.782;6.074;2022-11-18T12:29:58;98196.47;;;11.43;100.00
24858;BME280;12935;50.782;6.074;2022-11-18T12:35:20;98199.94;;;10.99;100.00
24858;BME280;12935;50.782;6.074;2022-11-18T12:42:58;98201.22;;;10.94;100.00
24858;BME280;12935;50.782;6.074;2022-11-18T12:50:56;98202.56;;;11.02;100.00
24858;BME280;12935;50.782;6.074;2022-11-18T12:53:50;98205.50;;;11.11;100.00
24858;BME280;12935;50.782;6.074;2022-11-18T12:58:44;98207.97;;;11.06;100.00
24858;BME280;12935;50.782;6.074;2022-11-18T13:01:12;98208.31;;;11.08;100.00
24858;BME280;12935;50.782;6.074;2022-11-18T13:03:37;98196.25;;;11.05;100.00
24858;BME280;12935;50.782;6.074;2022-11-18T13:06:06;98206.53;;;11.01;100.00
24858;BME280;12935;50.782;6.074;2022-11-18T13:08:36;98208.16;;;10.99;100.00
24858;BME280;12935;50.782;6.074;2022-11-18T13:11:14;98208.91;;;11.15;100.00
24858;BME280;12935;50.782;6.074;2022-11-18T13:14:00;98211.66;;;11.15;100.00
24858;BME280;12935;50.782;6.074;2022-11-18T13:16:47;98196.38;;;11.02;100.00
24858;BME280;12935;50.782;6.074;2022-11-18T13:19:31;98207.09;;;11.25;100.00
24858;BME280;12935;50.782;6.074;2022-11-18T13:21:58;98198.91;;;11.25;100.00
24858;BME280;12935;50.782;6.074;2022-11-18T13:24:48;98202.06;;;11.23;100.00
24858;BME280;12935;50.782;6.074;2022-11-18T13:27:45;98211.69;;;11.44;100.00
24858;BME280;12935;50.782;6.074;2022-11-18T13:30:13;98208.78;;;11.35;100.00
24858;BME280;12935;50.782;6.074;2022-11-18T13:32:43;98214.69;;;11.34;100.00
24858;BME280;12935;50.782;6.074;2022-11-18T13:35:13;98219.88;;;11.44;100.00
24858;BME280;12935;50.782;6.074;2022-11-18T13:37:59;98216.16;;;11.67;100.00
24858;BME280;12935;50.782;6.074;2022-11-18T13:40:31;98219.09;;;11.60;100.00
24858;BME280;12935;50.782;6.074;2022-11-18T13:43:02;98214.59;;;11.66;100.00
24858;BME280;12935;50.782;6.074;2022-11-18T13:45:28;98224.34;;;11.67;100.00
24858;BME280;12935;50.782;6.074;2022-11-18T13:47:58;98219.63;;;11.84;100.00
24858;BME280;12935;50.782;6.074;2022-11-18T13:50:46;98221.56;;;12.12;100.00
24858;BME280;12935;50.782;6.074;2022-11-18T13:53:30;98218.13;;;12.37;100.00
24858;BME280;12935;50.782;6.074;2022-11-18T13:56:05;98217.16;;;12.02;100.00
24858;BME280;12935;50.782;6.074;2022-11-18T13:58:36;98221.09;;;11.72;100.00
24858;BME280;12935;50.782;6.074;2022-11-18T14:01:05;98229.97;;;11.47;100.00
24858;BME280;12935;50.782;6.074;2022-11-18T14:06:40;98233.84;;;11.17;100.00
24858;BME280;12935;50.782;6.074;2022-11-18T14:11:45;98235.38;;;11.02;100.00
24858;BME280;12935;50.782;6.074;2022-11-18T14:14:42;98242.78;;;11.34;100.00
24858;BME280;12935;50.782;6.074;2022-11-18T14:19:37;98246.66;;;11.20;100.00
24858;BME280;12935;50.782;6.074;2022-11-18T14:22:05;98248.53;;;11.07;100.00
24858;BME280;12935;50.782;6.074;2022-11-18T14:24:34;98245.78;;;10.91;100.00
24858;BME280;12935;50.782;6.074;2022-11-18T14:30:30;98252.66;;;11.15;100.00
24858;BME280;12935;50.782;6.074;2022-11-18T14:35:31;98254.09;;;11.04;100.00
24858;BME280;12935;50.782;6.074;2022-11-18T14:37:56;98255.63;;;11.05;100.00
24858;BME280;12935;50.782;6.074;2022-11-18T14:40:21;98237.59;;;11.07;100.00
24858;BME280;12935;50.782;6.074;2022-11-18T14:42:47;98248.53;;;11.07;100.00
24858;BME280;12935;50.782;6.074;2022-11-18T14:45:12;98255.81;;;11.14;100.00
24858;BME280;12935;50.782;6.074;2022-11-18T14:47:38;98258.94;;;10.80;100.00